Time;durP1;ratioP1;P1;durP2;ratioP2;P2;SDS_P1;SDS_P2;PMS_P1;PMS_P2;Temp;Humidity;BMP_temperature;BMP_pressure;BME280_temperature;BME280_humidity;BME280_pressure;Samples;Min_cycle;Max_cycle;Signal;HPM_P1;HPM_P2
2022/02/18 00:00:11;;;;;;;21.48;13.18;;;;;;;5.06;74.88;95540.28;5094269;28;20034;-70
2022/02/18 00:02:37;;;;;;;22.52;13.00;;;;;;;5.07;75.01;95534.22;5094241;28;20020;-70
2022/02/18 00:05:03;;;;;;;20.58;15.23;;;;;;;5.09;74.94;95545.34;5094169;28;20107;-70
2022/02/18 00:07:28;;;;;;;21.75;13.70;;;;;;;5.09;75.69;95539.34;5093949;28;20488;-70
2022/02/18 00:09:54;;;;;;;20.85;12.65;;;;;;;5.18;75.44;95539.06;5094059;28;20036;-70
2022/02/18 00:12:19;;;;;;;18.70;12.98;;;;;;;5.16;75.75;95535.66;5094055;28;20034;-70
2022/02/18 00:14:45;;;;;;;16.80;12.50;;;;;;;5.19;75.65;95532.97;5094092;28;20024;-70
2022/02/18 00:17:10;;;;;;;26.60;12.18;;;;;;;5.21;76.13;95532.91;5093977;28;20099;-70
2022/02/18 00:19:36;;;;;;;18.08;11.43;;;;;;;5.22;75.98;95537.19;5093674;28;20036;-70
2022/02/18 00:22:03;;;;;;;20.35;11.82;;;;;;;5.25;76.18;95537.09;5093923;28;20043;-70
2022/02/18 00:24:29;;;;;;;21.35;12.10;;;;;;;5.22;76.24;95543.22;5093814;28;20500;-70
2022/02/18 00:26:54;;;;;;;17.08;10.95;;;;;;;5.33;75.91;95544.63;5093723;28;20016;-70
2022/02/18 00:29:20;;;;;;;20.45;12.38;;;;;;;5.40;75.84;95538.31;5093599;28;20355;-70
2022/02/18 00:31:45;;;;;;;15.60;11.57;;;;;;;5.49;75.49;95548.41;5093655;28;20059;-70
2022/02/18 00:34:11;;;;;;;16.85;10.98;;;;;;;5.48;75.67;95548.47;5075684;28;20070;-70
2022/02/18 00:36:36;;;;;;;15.20;11.13;;;;;;;5.57;75.49;95553.34;5093625;28;20381;-70
2022/02/18 00:39:04;;;;;;;17.20;11.43;;;;;;;5.68;75.42;95555.56;5093697;28;20070;-70
2022/02/18 00:41:29;;;;;;;16.33;11.05;;;;;;;5.69;74.80;95554.66;5093734;28;20028;-70
2022/02/18 00:43:55;;;;;;;15.35;10.82;;;;;;;5.67;74.68;95561.66;5093544;28;20465;-70
2022/02/18 00:46:20;;;;;;;12.77;9.70;;;;;;;5.75;74.98;95553.59;5093493;28;20028;-71
2022/02/18 00:48:46;;;;;;;18.83;11.45;;;;;;;5.80;74.70;95556.88;5093317;28;20032;-70
2022/02/18 00:51:12;;;;;;;13.20;10.80;;;;;;;5.84;74.74;95553.25;5093490;28;20031;-70
2022/02/18 00:53:37;;;;;;;13.70;10.02;;;;;;;5.81;74.84;95558.59;5093396;28;20584;-70
2022/02/18 00:56:03;;;;;;;15.30;10.70;;;;;;;5.86;74.37;95558.41;5093228;28;20496;-70
2022/02/18 00:58:28;;;;;;;18.80;9.82;;;;;;;5.88;74.55;95560.06;5093283;28;20020;-70
2022/02/18 01:00:54;;;;;;;13.77;10.30;;;;;;;5.88;74.27;95559.22;5093257;28;20020;-70
2022/02/18 01:03:20;;;;;;;13.52;10.27;;;;;;;5.85;74.66;95548.94;5093306;28;20023;-70
2022/02/18 01:05:47;;;;;;;13.95;9.95;;;;;;;5.88;74.78;95549.69;5093366;28;20020;-70
2022/02/18 01:08:13;;;;;;;15.30;9.23;;;;;;;5.93;74.60;95546.94;5093082;28;20023;-70
2022/02/18 01:10:38;;;;;;;14.30;10.02;;;;;;;6.00;73.93;95544.94;5093114;28;20103;-70
2022/02/18 01:13:04;;;;;;;12.23;7.60;;;;;;;5.97;73.31;95547.66;5093011;28;20021;-70
2022/02/18 01:15:30;;;;;;;7.47;4.75;;;;;;;6.41;64.13;95550.41;5093145;28;20020;-70
2022/02/18 01:17:55;;;;;;;8.02;4.82;;;;;;;7.01;61.23;95551.63;5093073;28;20024;-70
2022/02/18 01:20:21;;;;;;;7.63;5.05;;;;;;;7.54;59.46;95556.47;5093011;28;20044;-70
2022/02/18 01:22:47;;;;;;;6.50;4.65;;;;;;;8.16;55.97;95560.81;5093122;28;20099;-70
2022/02/18 01:25:12;;;;;;;9.98;4.55;;;;;;;8.44;55.31;95555.22;5093027;28;20050;-70
2022/02/18 01:27:42;;;;;;;7.60;4.15;;;;;;;8.72;54.01;95563.53;5093012;28;20761;-70
2022/02/18 01:30:09;;;;;;;5.78;3.75;;;;;;;8.90;54.08;95561.84;5093045;28;20039;-70
2022/02/18 01:32:35;;;;;;;11.70;4.47;;;;;;;9.06;53.03;95563.75;5093017;28;20023;-70
2022/02/18 01:35:02;;;;;;;5.80;4.05;;;;;;;9.23;51.60;95578.56;5092851;28;20470;-70
2022/02/18 01:37:28;;;;;;;7.57;4.07;;;;;;;9.37;52.45;95583.13;5092944;28;20024;-70
2022/02/18 01:39:53;;;;;;;7.97;3.50;;;;;;;9.50;51.04;95582.53;5092975;28;20043;-70
2022/02/18 01:42:19;;;;;;;5.78;3.58;;;;;;;9.59;50.61;95571.63;5093048;28;20024;-70
2022/02/18 01:44:47;;;;;;;5.03;3.20;;;;;;;9.68;50.30;95575.56;5092854;28;20063;-70
2022/02/18 01:47:21;;;;;;;5.93;3.33;;;;;;;9.77;49.16;95576.84;5092844;28;20028;-70
2022/02/18 01:49:49;;;;;;;6.00;3.42;;;;;;;9.78;49.84;95584.63;5092811;28;20040;-70
2022/02/18 01:52:17;;;;;;;5.35;3.20;;;;;;;9.81;49.68;95601.94;5092800;28;20386;-70
2022/02/18 01:54:43;;;;;;;7.65;3.65;;;;;;;9.82;49.17;95598.38;5092781;28;20085;-70
2022/02/18 01:57:09;;;;;;;6.93;2.60;;;;;;;9.81;49.75;95594.09;5092702;28;20024;-70
2022/02/18 01:59:35;;;;;;;4.40;2.90;;;;;;;9.81;49.44;95591.47;5092601;28;20377;-70
2022/02/18 02:02:01;;;;;;;4.38;2.65;;;;;;;9.89;48.87;95594.53;5092724;28;20103;-70
2022/02/18 02:04:27;;;;;;;5.70;2.60;;;;;;;9.97;48.92;95604.59;5092604;28;20077;-70
2022/02/18 02:06:58;;;;;;;4.75;2.65;;;;;;;10.01;48.98;95608.75;5092666;28;20024;-70
2022/02/18 02:09:25;;;;;;;4.75;2.90;;;;;;;10.05;48.29;95619.91;5092555;28;20039;-70
2022/02/18 02:11:50;;;;;;;3.10;2.25;;;;;;;10.06;48.46;95624.19;5094066;28;20024;-70
2022/02/18 02:14:16;;;;;;;4.30;2.80;;;;;;;10.06;48.39;95619.78;5078135;28;20378;-70
2022/02/18 02:16:41;;;;;;;3.85;2.53;;;;;;;10.03;48.35;95619.97;5096463;28;20023;-70
2022/02/18 02:19:07;;;;;;;3.55;2.20;;;;;;;10.13;48.08;95641.25;5096020;28;20063;-70
2022/02/18 02:21:33;;;;;;;7.20;2.90;;;;;;;10.13;47.90;95656.94;5096241;28;20028;-70
2022/02/18 02:23:59;;;;;;;4.70;2.55;;;;;;;10.16;47.84;95651.53;5096057;28;20500;-70
2022/02/18 02:26:25;;;;;;;3.50;2.20;;;;;;;10.21;47.36;95653.94;5096099;28;20024;-70
2022/02/18 02:28:50;;;;;;;2.85;1.60;;;;;;;10.23;47.15;95625.94;5096193;28;20121;-70
2022/02/18 02:31:16;;;;;;;3.45;2.30;;;;;;;10.24;47.46;95651.16;5095984;28;20023;-70
2022/02/18 02:33:42;;;;;;;3.90;2.08;;;;;;;10.28;47.21;95631.78;5096000;28;20105;-70
2022/02/18 02:36:08;;;;;;;6.88;2.45;;;;;;;10.28;46.45;95647.47;5095800;28;20027;-69
2022/02/18 02:38:33;;;;;;;3.17;1.80;;;;;;;10.24;46.84;95672.91;5095960;28;20094;-70
2022/02/18 02:40:59;;;;;;;5.78;1.95;;;;;;;10.21;46.66;95659.16;5095759;28;20527;-70
2022/02/18 02:43:27;;;;;;;3.00;2.30;;;;;;;10.17;46.15;95658.44;5095937;28;20103;-70
2022/02/18 02:45:53;;;;;;;4.20;1.50;;;;;;;10.21;46.20;95686.13;5095754;28;20401;-70
2022/02/18 02:48:18;;;;;;;2.83;1.90;;;;;;;10.18;45.87;95675.00;5095561;28;20046;-70
2022/02/18 02:50:44;;;;;;;2.72;1.75;;;;;;;10.19;45.33;95668.81;5095544;28;20081;-70
2022/02/18 02:53:10;;;;;;;2.47;1.60;;;;;;;10.17;44.63;95666.28;5095585;28;20024;-70
2022/02/18 02:55:35;;;;;;;1.73;1.30;;;;;;;10.06;45.28;95672.03;5095622;28;20024;-70
2022/02/18 02:58:01;;;;;;;4.60;1.50;;;;;;;10.06;45.41;95679.88;5095535;28;20028;-70
2022/02/18 03:00:26;;;;;;;2.35;1.35;;;;;;;10.03;45.76;95689.66;5095396;28;20024;-69
2022/02/18 03:02:52;;;;;;;2.67;1.20;;;;;;;9.98;46.14;95703.81;5095561;28;20020;-70
2022/02/18 03:05:17;;;;;;;2.70;1.40;;;;;;;9.90;45.80;95695.47;5095376;28;20043;-70
2022/02/18 03:07:43;;;;;;;2.67;1.30;;;;;;;9.77;46.64;95713.53;5095294;28;20059;-70
2022/02/18 03:10:09;;;;;;;8.88;1.38;;;;;;;9.70;46.87;95718.19;5095297;28;20024;-70
2022/02/18 03:12:35;;;;;;;1.67;1.10;;;;;;;9.70;47.45;95731.22;5095152;28;20017;-69
2022/02/18 03:15:01;;;;;;;1.30;1.05;;;;;;;9.54;48.32;95740.72;5095088;28;20153;-70
2022/02/18 03:17:28;;;;;;;3.72;1.10;;;;;;;9.47;48.62;95769.72;5095145;28;20031;-70
2022/02/18 03:19:53;;;;;;;2.20;0.90;;;;;;;9.38;49.15;95780.59;5094917;28;20044;-69
2022/02/18 03:22:19;;;;;;;1.33;0.95;;;;;;;9.40;49.64;95796.19;5094679;28;20032;-70
2022/02/18 03:24:44;;;;;;;1.92;1.27;;;;;;;9.38;49.37;95793.63;5094077;28;20020;-69
2022/02/18 03:27:10;;;;;;;3.20;0.95;;;;;;;9.19;50.27;95798.84;5094867;28;20028;-70
2022/02/18 03:29:36;;;;;;;1.08;0.65;;;;;;;9.03;50.47;95798.66;5094935;28;20077;-70
2022/02/18 03:32:03;;;;;;;0.82;0.60;;;;;;;9.00;50.37;95790.97;5094897;28;20441;-70
2022/02/18 03:34:29;;;;;;;1.63;0.80;;;;;;;8.93;51.00;95793.00;5094740;28;20042;-70
2022/02/18 03:36:54;;;;;;;0.60;0.60;;;;;;;8.81;51.23;95786.53;5094646;28;20032;-70
2022/02/18 03:39:20;;;;;;;4.47;0.80;;;;;;;8.73;51.31;95810.34;5094719;28;20028;-69
2022/02/18 03:41:46;;;;;;;0.82;0.63;;;;;;;8.67;51.33;95797.56;5094682;28;20047;-70
2022/02/18 03:44:11;;;;;;;1.67;0.50;;;;;;;8.59;51.33;95800.50;5094694;28;20090;-69
2022/02/18 03:46:37;;;;;;;4.20;0.80;;;;;;;8.48;51.57;95808.72;5094462;28;20091;-69
2022/02/18 03:49:03;;;;;;;0.95;0.57;;;;;;;8.45;51.53;95801.88;5094455;28;20051;-69
2022/02/18 03:51:28;;;;;;;0.85;0.70;;;;;;;8.47;51.43;95823.53;5094472;28;20032;-69
2022/02/18 03:53:54;;;;;;;2.78;0.60;;;;;;;8.47;51.69;95835.72;5094498;28;20024;-69
2022/02/18 03:56:20;;;;;;;1.00;0.65;;;;;;;8.46;51.78;95837.47;5094448;28;20055;-69
2022/02/18 03:58:46;;;;;;;1.50;0.47;;;;;;;8.53;51.62;95832.84;5094342;28;20069;-69
2022/02/18 04:01:11;;;;;;;2.40;0.65;;;;;;;8.55;51.86;95845.88;5094247;28;20073;-69
2022/02/18 04:03:37;;;;;;;0.60;0.50;;;;;;;8.58;51.97;95848.34;5094266;28;20024;-69
2022/02/18 04:06:03;;;;;;;2.60;0.50;;;;;;;8.57;52.21;95872.69;5094281;28;20091;-69
2022/02/18 04:08:28;;;;;;;0.45;0.43;;;;;;;8.46;52.37;95860.91;5094072;28;20081;-69
2022/02/18 04:10:54;;;;;;;0.85;0.63;;;;;;;8.47;51.46;95870.47;5094139;28;20032;-69
2022/02/18 04:13:20;;;;;;;0.73;0.40;;;;;;;8.44;51.76;95864.50;5094090;28;20024;-70
2022/02/18 04:15:45;;;;;;;2.25;0.32;;;;;;;8.36;52.46;95877.00;5094145;28;20035;-69
2022/02/18 04:18:11;;;;;;;0.73;0.60;;;;;;;8.29;52.24;95886.81;5094075;28;20019;-69
2022/02/18 04:20:36;;;;;;;0.95;0.50;;;;;;;8.25;52.12;95919.94;5093685;28;20048;-69
2022/02/18 04:23:02;;;;;;;0.80;0.70;;;;;;;8.14;52.58;95896.06;5094017;28;20111;-69
2022/02/18 04:25:28;;;;;;;1.40;1.27;;;;;;;8.08;52.48;95918.84;5093718;28;20021;-69
2022/02/18 04:28:00;;;;;;;1.33;0.43;;;;;;;8.06;52.33;95905.03;5093735;28;20016;-69
2022/02/18 04:30:27;;;;;;;1.55;0.68;;;;;;;8.04;51.92;95912.03;5093961;28;20094;-69
2022/02/18 04:32:52;;;;;;;1.45;0.57;;;;;;;7.96;52.40;95917.56;5093776;28;20028;-69
2022/02/18 04:35:18;;;;;;;1.20;0.70;;;;;;;7.91;52.16;95935.09;5093378;28;20016;-69
2022/02/18 04:37:45;;;;;;;0.77;0.50;;;;;;;7.87;52.05;95945.69;5093638;28;20036;-70
2022/02/18 04:40:13;;;;;;;1.67;0.50;;;;;;;7.84;50.58;95939.69;5093581;28;20025;-70
2022/02/18 04:42:39;;;;;;;3.72;0.60;;;;;;;7.91;50.83;95929.03;5093674;28;20028;-69
2022/02/18 04:45:05;;;;;;;0.63;0.30;;;;;;;7.91;50.19;95929.91;5093710;28;20028;-69
2022/02/18 04:47:31;;;;;;;0.65;0.40;;;;;;;7.89;49.09;95907.44;5093430;28;20024;-70
2022/02/18 04:49:57;;;;;;;2.25;0.60;;;;;;;7.91;48.51;95898.66;5093347;28;20378;-70
2022/02/18 04:52:22;;;;;;;1.25;0.50;;;;;;;7.95;48.40;95902.00;5093377;28;20213;-70
2022/02/18 04:54:48;;;;;;;0.63;0.63;;;;;;;7.95;46.82;95897.63;5093353;28;20478;-69
2022/02/18 04:57:13;;;;;;;0.80;0.55;;;;;;;7.96;45.84;95898.47;5093334;28;20115;-69
2022/02/18 04:59:39;;;;;;;1.27;1.10;;;;;;;7.99;43.75;95910.53;5093410;28;20020;-69
2022/02/18 05:02:05;;;;;;;0.88;0.60;;;;;;;8.08;43.68;95899.75;5093327;28;20069;-69
2022/02/18 05:04:31;;;;;;;0.55;0.55;;;;;;;8.09;43.40;95893.63;5075216;28;20039;-69
2022/02/18 05:06:57;;;;;;;0.80;0.77;;;;;;;8.19;41.69;95883.72;5075270;28;20032;-70
2022/02/18 05:09:22;;;;;;;0.60;0.43;;;;;;;8.34;41.77;95871.84;5093207;28;20085;-70
2022/02/18 05:11:49;;;;;;;0.60;0.50;;;;;;;8.36;39.28;95841.34;5093176;28;20107;-70
2022/02/18 05:14:16;;;;;;;0.63;0.45;;;;;;;8.42;39.27;95841.09;5093168;28;20501;-70
2022/02/18 05:16:42;;;;;;;0.55;0.55;;;;;;;8.42;37.78;95835.91;5093112;28;20028;-70
2022/02/18 05:19:09;;;;;;;1.60;1.20;;;;;;;8.50;38.67;95832.13;5093071;28;20043;-70
2022/02/18 05:21:36;;;;;;;1.98;0.80;;;;;;;8.54;37.95;95847.59;5093163;28;20028;-70
2022/02/18 05:24:07;;;;;;;0.40;0.40;;;;;;;8.68;37.13;95859.22;5075011;28;20377;-70
2022/02/18 05:26:33;;;;;;;1.80;1.02;;;;;;;8.69;35.25;95853.09;5093201;28;20028;-70
2022/02/18 05:28:58;;;;;;;1.58;0.70;;;;;;;8.77;34.14;95847.56;5093001;28;20511;-70
2022/02/18 05:31:24;;;;;;;4.63;0.70;;;;;;;8.84;34.36;95867.25;5093115;28;20048;-70
2022/02/18 05:33:50;;;;;;;1.48;0.60;;;;;;;8.88;34.81;95868.81;5093050;28;20046;-70
2022/02/18 05:36:16;;;;;;;0.47;0.47;;;;;;;8.83;34.31;95874.25;5092911;28;20379;-70
2022/02/18 05:38:43;;;;;;;0.65;0.45;;;;;;;8.90;34.47;95894.84;5092981;28;20024;-70
2022/02/18 05:41:16;;;;;;;1.52;0.60;;;;;;;8.94;34.51;95896.44;5092932;28;20096;-70
2022/02/18 05:43:42;;;;;;;1.00;0.65;;;;;;;8.95;34.54;95912.03;5093078;28;20604;-70
2022/02/18 05:46:08;;;;;;;1.00;0.60;;;;;;;9.01;33.17;95917.88;5093104;28;20100;-70
2022/02/18 05:48:34;;;;;;;1.73;0.60;;;;;;;9.04;32.51;95913.41;5096819;28;20161;-70
2022/02/18 05:51:01;;;;;;;4.93;2.22;;;;;;;9.07;32.46;95938.50;5096716;28;20393;-70
2022/02/18 05:53:27;;;;;;;11.88;3.58;;;;;;;9.04;32.51;95933.41;5096681;28;20487;-70
2022/02/18 05:55:53;;;;;;;11.65;5.78;;;;;;;9.06;31.91;95947.25;5096837;28;20067;-70
2022/02/18 05:58:19;;;;;;;9.98;5.30;;;;;;;9.01;30.69;95942.22;5096635;28;20148;-69
2022/02/18 06:00:45;;;;;;;6.78;3.00;;;;;;;9.04;30.57;95967.31;5096718;28;20103;-70
2022/02/18 06:03:11;;;;;;;9.23;5.28;;;;;;;9.03;31.26;95974.28;5096675;28;20503;-70
2022/02/18 06:05:37;;;;;;;7.28;4.28;;;;;;;9.10;31.68;95967.91;5096470;28;20047;-69
2022/02/18 06:08:03;;;;;;;2.55;1.58;;;;;;;9.09;30.11;95941.88;5078338;28;20386;-69
2022/02/18 06:10:28;;;;;;;3.03;2.33;;;;;;;9.13;28.39;95966.09;5096549;28;20020;-70
2022/02/18 06:12:54;;;;;;;6.25;4.32;;;;;;;9.10;28.94;95964.47;5096478;28;20024;-69
2022/02/18 06:15:20;;;;;;;2.60;1.30;;;;;;;9.12;27.64;95953.97;5096299;28;20031;-70
2022/02/18 06:17:46;;;;;;;0.98;0.50;;;;;;;9.21;24.69;95946.59;5096465;28;20028;-69
2022/02/18 06:20:12;;;;;;;1.08;0.55;;;;;;;9.20;25.83;95965.78;5096084;28;20448;-69
2022/02/18 06:22:37;;;;;;;2.92;2.28;;;;;;;9.24;25.64;95963.88;5096299;28;20026;-70
2022/02/18 06:25:08;;;;;;;9.00;1.30;;;;;;;9.27;25.06;95965.53;5096261;28;20059;-70
2022/02/18 06:27:34;;;;;;;1.50;0.90;;;;;;;9.27;25.89;95997.69;5096046;28;20024;-70
2022/02/18 06:30:00;;;;;;;2.35;0.80;;;;;;;9.26;23.44;95988.16;5096248;28;20097;-69
2022/02/18 06:32:25;;;;;;;3.10;1.70;;;;;;;9.25;23.63;96003.88;5096126;28;20466;-69
2022/02/18 06:34:52;;;;;;;1.98;0.90;;;;;;;9.29;23.35;96011.53;5095893;28;20028;-69
2022/02/18 06:37:18;;;;;;;9.23;1.15;;;;;;;9.27;23.55;95996.84;5096045;28;20032;-69
2022/02/18 06:39:44;;;;;;;1.50;0.75;;;;;;;9.27;23.66;96000.28;5095973;28;20017;-69
2022/02/18 06:42:10;;;;;;;0.50;0.50;;;;;;;9.39;23.63;95996.31;5095763;28;20425;-69
2022/02/18 06:44:36;;;;;;;0.90;0.85;;;;;;;9.89;23.22;95982.91;5095746;28;20020;-69
2022/02/18 06:47:01;;;;;;;5.93;0.90;;;;;;;11.24;22.59;95997.66;5095790;28;20020;-69
2022/02/18 06:49:27;;;;;;;1.30;0.95;;;;;;;13.07;19.89;96001.25;5095613;28;20031;-70
2022/02/18 06:51:56;;;;;;;1.98;0.70;;;;;;;14.90;18.42;96027.34;5095633;28;20032;-70
2022/02/18 06:54:25;;;;;;;1.83;0.60;;;;;;;15.54;17.62;96002.97;5095554;28;20030;-70
2022/02/18 06:56:52;;;;;;;1.45;0.60;;;;;;;16.42;17.75;96027.00;5095439;28;20032;-70
2022/02/18 06:59:19;;;;;;;1.88;0.63;;;;;;;15.82;17.77;96033.72;5095445;28;20028;-69
2022/02/18 07:01:47;;;;;;;0.52;0.50;;;;;;;15.04;19.40;96034.34;5095411;28;20024;-70
2022/02/18 07:04:15;;;;;;;0.85;0.77;;;;;;;14.07;19.66;96024.44;5095290;28;20032;-70
2022/02/18 07:06:41;;;;;;;1.48;1.00;;;;;;;13.21;20.23;96026.72;5095528;28;20524;-70
2022/02/18 07:09:11;;;;;;;2.08;1.00;;;;;;;12.60;21.25;96030.06;5095340;28;20027;-70
2022/02/18 07:11:37;;;;;;;2.10;0.80;;;;;;;12.92;20.98;96033.63;5095375;28;20063;-70
2022/02/18 07:14:02;;;;;;;1.13;0.60;;;;;;;13.21;21.23;96055.59;5095240;28;20020;-70
2022/02/18 07:16:28;;;;;;;3.47;0.73;;;;;;;13.78;20.76;96042.78;5095122;28;20094;-70
2022/02/18 07:18:54;;;;;;;1.15;0.70;;;;;;;15.33;19.49;96039.53;5094938;28;20046;-70
2022/02/18 07:21:20;;;;;;;2.00;0.77;;;;;;;16.48;18.43;96043.34;5095193;28;20020;-70
2022/02/18 07:23:45;;;;;;;1.60;0.82;;;;;;;16.59;18.10;96051.38;5095103;28;20052;-71
2022/02/18 07:26:11;;;;;;;2.25;0.98;;;;;;;16.54;18.51;96041.16;5095006;28;20032;-70
2022/02/18 07:28:36;;;;;;;2.00;1.08;;;;;;;16.93;19.09;96041.06;5094816;28;20020;-70
2022/02/18 07:31:02;;;;;;;2.53;1.05;;;;;;;17.66;18.17;96028.81;5094845;28;20470;-71
2022/02/18 07:33:28;;;;;;;1.27;0.80;;;;;;;18.47;17.42;96030.69;5094843;28;20028;-71
2022/02/18 07:35:53;;;;;;;3.85;0.70;;;;;;;18.09;16.92;96037.94;5094751;28;20077;-71
2022/02/18 07:38:19;;;;;;;1.85;0.80;;;;;;;18.45;17.20;96029.94;5094801;28;20024;-70
2022/02/18 07:40:45;;;;;;;3.92;0.77;;;;;;;18.98;17.25;96057.63;5094740;28;20039;-70
2022/02/18 07:43:11;;;;;;;0.88;0.50;;;;;;;19.21;16.44;96035.56;5094710;28;20028;-70
2022/02/18 07:45:36;;;;;;;1.38;0.80;;;;;;;18.85;17.06;96054.25;5094795;28;20450;-70
2022/02/18 07:48:02;;;;;;;3.00;0.80;;;;;;;19.04;17.08;96061.56;5094538;28;20048;-71
2022/02/18 07:50:28;;;;;;;2.28;0.70;;;;;;;19.22;17.37;96047.84;5094588;28;20028;-70
2022/02/18 07:52:54;;;;;;;2.30;0.70;;;;;;;18.84;17.58;96053.41;5094467;28;20024;-70
2022/02/18 07:55:20;;;;;;;3.10;1.75;;;;;;;19.08;17.08;96068.34;5094412;28;20077;-70
2022/02/18 07:57:46;;;;;;;7.05;1.33;;;;;;;19.34;17.34;96056.59;5094324;28;20047;-70
2022/02/18 08:00:13;;;;;;;1.38;0.95;;;;;;;19.84;16.67;96066.69;5094271;28;20474;-70
2022/02/18 08:02:39;;;;;;;1.13;0.73;;;;;;;19.95;16.03;96066.63;5076278;28;20028;-71
2022/02/18 08:05:06;;;;;;;1.30;0.63;;;;;;;19.12;17.47;96077.75;5094216;28;20020;-70
2022/02/18 08:07:31;;;;;;;4.07;1.10;;;;;;;19.12;16.70;96083.06;5094229;28;20059;-70
2022/02/18 08:09:57;;;;;;;1.30;0.80;;;;;;;18.43;17.03;96092.78;5093369;28;20563;-70
2022/02/18 08:12:22;;;;;;;1.92;0.90;;;;;;;17.51;18.17;96073.09;5094284;28;20018;-70
2022/02/18 08:14:48;;;;;;;2.95;1.30;;;;;;;17.08;19.83;96083.22;5094160;28;20019;-70
2022/02/18 08:17:14;;;;;;;3.75;1.98;;;;;;;16.92;18.77;96083.44;5093856;28;20085;-70
2022/02/18 08:19:39;;;;;;;2.20;1.23;;;;;;;16.87;19.42;96081.13;5093745;28;20043;-70
2022/02/18 08:22:05;;;;;;;5.05;1.25;;;;;;;16.37;20.99;96100.38;5093856;28;20525;-70
2022/02/18 08:24:31;;;;;;;3.15;1.60;;;;;;;15.95;21.22;96104.94;5093893;28;20101;-69
2022/02/18 08:26:57;;;;;;;5.35;0.90;;;;;;;15.11;20.82;96100.66;5093909;28;20432;-70
2022/02/18 08:29:24;;;;;;;3.85;1.20;;;;;;;14.57;22.11;96104.81;5093846;28;20024;-69
2022/02/18 08:31:50;;;;;;;3.40;1.70;;;;;;;14.14;22.64;96091.50;5093847;28;20056;-69
2022/02/18 08:34:16;;;;;;;3.08;1.00;;;;;;;13.85;23.53;96099.31;5093750;28;20457;-70
2022/02/18 08:36:41;;;;;;;7.97;0.98;;;;;;;13.81;24.59;96100.44;5093611;28;20042;-70
2022/02/18 08:39:08;;;;;;;8.57;4.60;;;;;;;13.87;24.20;96104.50;5093765;28;20520;-69
2022/02/18 08:41:35;;;;;;;4.95;1.20;;;;;;;13.76;24.99;96116.47;5093596;28;20036;-69
2022/02/18 08:44:00;;;;;;;1.67;0.85;;;;;;;13.49;23.54;96108.38;5075627;28;20024;-70
2022/02/18 08:46:28;;;;;;;2.55;1.27;;;;;;;13.35;23.14;96104.75;5093689;28;20035;-70
2022/02/18 08:48:54;;;;;;;2.53;1.23;;;;;;;13.29;23.66;96106.84;5093451;28;20073;-69
2022/02/18 08:51:20;;;;;;;12.85;4.57;;;;;;;13.30;24.08;96109.41;5093553;28;20024;-70
2022/02/18 08:53:46;;;;;;;1.73;1.05;;;;;;;13.62;24.70;96095.41;5093294;28;20020;-70
2022/02/18 08:56:12;;;;;;;6.65;3.05;;;;;;;13.49;23.53;96105.75;5093364;28;20028;-70
2022/02/18 08:58:38;;;;;;;4.90;2.17;;;;;;;13.55;24.14;96099.31;5093316;28;20386;-69
2022/02/18 09:01:03;;;;;;;2.45;1.73;;;;;;;13.67;24.22;96119.66;5093360;28;20020;-70
2022/02/18 09:03:29;;;;;;;8.48;5.10;;;;;;;13.79;24.28;96130.38;5093381;28;20028;-69
2022/02/18 09:05:55;;;;;;;2.95;1.50;;;;;;;13.68;23.83;96110.81;5093216;28;20027;-70
2022/02/18 09:08:24;;;;;;;2.03;0.98;;;;;;;13.64;25.37;96125.91;5093263;28;20028;-70
2022/02/18 09:10:53;;;;;;;7.03;3.67;;;;;;;13.78;24.73;96132.16;5093354;28;20025;-70
2022/02/18 09:13:23;;;;;;;4.50;2.35;;;;;;;13.42;24.20;96141.19;5093191;28;20036;-70
2022/02/18 09:15:49;;;;;;;10.70;4.97;;;;;;;13.30;24.50;96148.78;5093217;28;20105;-70
2022/02/18 09:18:15;;;;;;;13.38;3.72;;;;;;;13.23;25.24;96158.81;5093053;28;20024;-70
2022/02/18 09:20:41;;;;;;;4.75;2.50;;;;;;;13.10;25.06;96142.03;5094221;28;20040;-70
2022/02/18 09:23:07;;;;;;;6.32;3.55;;;;;;;13.11;26.51;96154.22;5097219;28;20073;-69
2022/02/18 09:25:32;;;;;;;7.30;4.10;;;;;;;13.04;26.55;96148.47;5097366;28;20020;-69
2022/02/18 09:28:00;;;;;;;3.17;2.05;;;;;;;12.79;26.21;96138.44;5097240;28;20020;-69
2022/02/18 09:30:26;;;;;;;3.35;1.60;;;;;;;12.61;26.12;96143.69;5097259;28;20099;-69
2022/02/18 09:32:52;;;;;;;4.28;1.83;;;;;;;12.61;26.14;96141.94;5097170;28;20549;-69
2022/02/18 09:35:18;;;;;;;2.53;1.58;;;;;;;12.61;26.37;96113.06;5079130;28;20020;-69
2022/02/18 09:37:43;;;;;;;2.13;1.02;;;;;;;12.82;26.91;96128.59;5097089;28;20107;-69
2022/02/18 09:40:10;;;;;;;4.38;1.80;;;;;;;13.06;26.27;96136.09;5096971;28;20051;-69
2022/02/18 09:42:40;;;;;;;5.75;1.23;;;;;;;13.09;25.15;96137.69;5097188;28;20031;-70
2022/02/18 09:45:06;;;;;;;2.97;1.17;;;;;;;12.96;25.75;96132.25;5096954;28;20028;-69
2022/02/18 09:47:33;;;;;;;3.55;1.55;;;;;;;12.72;25.54;96122.16;5097010;28;20025;-69
2022/02/18 09:50:03;;;;;;;4.63;1.00;;;;;;;12.77;26.19;96126.22;5096877;28;20020;-69
2022/02/18 09:52:31;;;;;;;4.07;1.25;;;;;;;12.93;24.98;96120.16;5096894;28;20036;-69
2022/02/18 09:54:56;;;;;;;4.25;1.10;;;;;;;12.98;25.34;96123.38;5096800;28;20032;-69
2022/02/18 09:57:25;;;;;;;12.73;1.20;;;;;;;13.06;24.94;96103.75;5096976;28;20058;-69
2022/02/18 09:59:51;;;;;;;1.15;0.80;;;;;;;13.07;25.70;96110.69;5096822;28;20035;-70
2022/02/18 10:02:17;;;;;;;2.30;1.00;;;;;;;13.10;25.32;96111.34;5096716;28;20456;-69
2022/02/18 10:04:43;;;;;;;2.35;0.95;;;;;;;13.23;25.10;96092.28;5096643;28;20047;-70
2022/02/18 10:07:08;;;;;;;1.92;0.90;;;;;;;13.27;25.18;96102.53;5096616;28;20058;-69
2022/02/18 10:09:43;;;;;;;2.95;0.80;;;;;;;13.13;25.29;96092.78;5096481;28;20049;-69
2022/02/18 10:12:10;;;;;;;3.78;1.00;;;;;;;13.25;25.19;96101.75;5096415;28;20470;-69
2022/02/18 10:14:56;;;;;;;2.25;1.17;;;;;;;13.06;24.27;96099.31;5096461;28;20085;-69
2022/02/18 10:17:23;;;;;;;1.40;0.85;;;;;;;13.02;25.27;96103.91;5096425;28;20042;-70
2022/02/18 10:19:50;;;;;;;2.60;1.10;;;;;;;13.10;24.86;96106.09;5096027;28;20043;-69
2022/02/18 10:22:22;;;;;;;5.60;1.10;;;;;;;12.93;24.38;96114.03;5096188;28;20024;-69
2022/02/18 10:24:48;;;;;;;5.00;1.13;;;;;;;12.95;24.52;96118.31;5096193;28;20059;-69
2022/02/18 10:27:15;;;;;;;5.95;1.05;;;;;;;12.95;24.52;96107.81;5096153;28;20074;-70
2022/02/18 10:29:54;;;;;;;2.30;1.00;;;;;;;12.70;24.23;96111.75;5096073;28;20382;-69
2022/02/18 10:32:19;;;;;;;1.55;0.90;;;;;;;12.66;25.28;96118.09;5095549;28;20394;-69
2022/02/18 10:34:55;;;;;;;4.88;0.90;;;;;;;12.67;24.88;96113.69;5096022;28;20028;-69
2022/02/18 10:37:23;;;;;;;2.72;0.98;;;;;;;12.50;24.81;96115.44;5096073;28;20106;-69
2022/02/18 10:39:49;;;;;;;3.42;0.98;;;;;;;12.55;24.99;96126.50;5095957;28;20465;-70
2022/02/18 10:42:16;;;;;;;2.35;1.10;;;;;;;12.63;24.79;96097.25;5095829;28;20028;-71
2022/02/18 10:44:42;;;;;;;2.17;1.58;;;;;;;12.91;24.04;96094.94;5095874;28;20478;-71
2022/02/18 10:47:19;;;;;;;10.23;4.95;;;;;;;12.86;24.07;96089.94;5095814;28;20031;-70
2022/02/18 10:49:46;;;;;;;3.00;1.40;;;;;;;12.76;24.64;96097.44;5077607;28;20393;-70
2022/02/18 10:52:17;;;;;;;2.58;1.20;;;;;;;12.80;24.67;96111.25;5095801;28;20023;-70
2022/02/18 10:54:47;;;;;;;11.02;3.17;;;;;;;12.63;25.06;96094.63;5095670;28;20031;-70
2022/02/18 10:57:26;;;;;;;4.38;2.13;;;;;;;12.67;25.35;96125.00;5095656;28;20036;-70
2022/02/18 10:59:54;;;;;;;7.93;3.10;;;;;;;12.68;25.28;96103.13;5095746;28;20028;-70
2022/02/18 11:02:41;;;;;;;6.95;1.63;;;;;;;12.53;24.84;96094.28;5095682;28;20478;-70
2022/02/18 11:05:26;;;;;;;3.15;2.17;;;;;;;12.68;24.53;96091.75;5095463;28;20032;-70
2022/02/18 11:07:52;;;;;;;4.97;2.28;;;;;;;12.45;24.47;96080.72;5095442;28;20054;-70
2022/02/18 11:10:42;;;;;;;3.78;1.88;;;;;;;12.52;25.25;96095.19;5095295;28;20105;-70
2022/02/18 11:13:07;;;;;;;2.25;1.17;;;;;;;12.59;25.13;96095.72;5095308;28;20445;-70
2022/02/18 11:15:35;;;;;;;2.80;1.85;;;;;;;12.64;25.07;96097.16;5095212;28;20103;-70
2022/02/18 11:18:01;;;;;;;3.08;0.95;;;;;;;12.76;25.84;96116.66;5095365;28;20167;-70
2022/02/18 11:20:27;;;;;;;6.88;1.55;;;;;;;12.74;25.31;96091.44;5095123;28;20464;-70
2022/02/18 11:22:54;;;;;;;4.82;1.88;;;;;;;12.70;25.13;96097.78;5095108;28;20023;-70
2022/02/18 11:25:22;;;;;;;1.52;0.90;;;;;;;12.81;24.86;96111.16;5095028;28;20039;-70
2022/02/18 11:27:48;;;;;;;5.40;2.03;;;;;;;12.71;25.38;96107.34;5094961;28;20028;-70
2022/02/18 11:30:14;;;;;;;4.68;2.10;;;;;;;12.63;25.33;96111.22;5095099;28;20023;-70
2022/02/18 11:33:04;;;;;;;5.35;1.80;;;;;;;12.62;26.30;96106.88;5095027;28;20024;-70